Time;durP1;ratioP1;P1;durP2;ratioP2;P2;SDS_P1;SDS_P2;PMS_P1;PMS_P2;Temp;Humidity;BMP_temperature;BMP_pressure;BME280_temperature;BME280_humidity;BME280_pressure;Samples;Min_cycle;Max_cycle;Signal;HPM_P1;HPM_P2
2023/03/10 00:01:31;;;;;;;14.48;3.62;;;9.30;99.90;;;;;;7333837;32;20211;-56
2023/03/10 00:05:33;;;;;;;13.68;4.20;;;9.20;99.90;;;;;;7334252;32;20479;-55
2023/03/10 00:09:35;;;;;;;9.13;2.90;;;9.20;99.90;;;;;;7337796;32;20126;-55
2023/03/10 00:13:37;;;;;;;11.57;2.70;;;9.20;99.90;;;;;;7329440;32;20187;-56
2023/03/10 00:17:39;;;;;;;11.80;2.75;;;9.20;99.90;;;;;;7336532;32;20198;-55
2023/03/10 00:21:41;;;;;;;8.55;2.30;;;9.30;99.90;;;;;;7332939;32;20100;-55
2023/03/10 00:25:43;;;;;;;8.20;2.17;;;9.30;99.90;;;;;;7331749;32;20151;-55
2023/03/10 00:29:44;;;;;;;6.90;1.90;;;9.30;99.90;;;;;;7347951;32;20236;-55
2023/03/10 00:33:46;;;;;;;5.32;1.83;;;9.30;99.90;;;;;;7334959;32;20230;-56
2023/03/10 00:37:48;;;;;;;6.65;1.80;;;9.40;99.90;;;;;;7337390;32;20104;-55
2023/03/10 00:41:50;;;;;;;7.68;1.42;;;9.40;99.90;;;;;;7336136;32;20171;-55
2023/03/10 00:45:51;;;;;;;5.82;1.73;;;9.30;99.90;;;;;;7337784;32;20129;-55
2023/03/10 00:49:53;;;;;;;4.35;2.10;;;9.40;99.90;;;;;;7337944;32;20525;-54
2023/03/10 00:53:55;;;;;;;4.00;2.05;;;9.50;99.90;;;;;;7334453;32;20202;-55
2023/03/10 00:57:57;;;;;;;3.75;1.60;;;9.50;99.90;;;;;;7345320;32;20274;-55
2023/03/10 01:01:59;;;;;;;3.97;1.23;;;9.50;99.90;;;;;;7337185;32;20132;-55
2023/03/10 01:06:01;;;;;;;3.03;1.05;;;9.60;99.90;;;;;;7338025;32;20531;-55
2023/03/10 01:10:02;;;;;;;3.87;1.00;;;9.60;99.90;;;;;;7338230;32;20111;-55
2023/03/10 01:14:07;;;;;;;1.52;0.70;;;9.60;99.90;;;;;;7331959;32;20300;-55
2023/03/10 01:18:09;;;;;;;3.28;0.70;;;9.70;99.90;;;;;;7341616;32;20108;-55
2023/03/10 01:22:10;;;;;;;2.35;0.45;;;9.60;99.90;;;;;;7343559;32;20141;-56
2023/03/10 01:26:12;;;;;;;1.77;0.70;;;9.70;99.90;;;;;;7335269;32;20233;-55
2023/03/10 01:30:14;;;;;;;2.05;0.55;;;9.60;99.90;;;;;;7336714;32;20203;-55
2023/03/10 01:34:16;;;;;;;3.62;0.60;;;9.60;99.90;;;;;;7332943;32;20218;-55
2023/03/10 01:38:17;;;;;;;2.40;0.75;;;9.60;99.90;;;;;;7337768;32;20154;-55
2023/03/10 01:42:19;;;;;;;2.10;0.70;;;9.60;99.90;;;;;;7341371;32;20812;-55
2023/03/10 01:46:35;;;;;;;4.18;0.90;;;9.50;99.90;;;;;;7337254;32;20188;-55
2023/03/10 01:50:38;;;;;;;1.55;0.80;;;9.60;99.90;;;;;;7337605;32;20133;-55
2023/03/10 01:54:48;;;;;;;4.55;1.52;;;9.50;99.90;;;;;;7344196;32;20417;-55
2023/03/10 01:58:50;;;;;;;2.95;1.27;;;9.50;99.90;;;;;;7343039;32;20572;-55
2023/03/10 02:03:06;;;;;;;4.35;1.50;;;9.50;99.90;;;;;;7332693;32;20139;-55
2023/03/10 02:07:10;;;;;;;2.20;1.30;;;9.60;99.90;;;;;;7334054;32;20178;-55
2023/03/10 02:11:14;;;;;;;3.83;1.40;;;9.60;99.90;;;;;;7339445;32;20563;-55
2023/03/10 02:15:16;;;;;;;3.40;1.55;;;9.50;99.90;;;;;;7337519;32;20275;-56
2023/03/10 02:19:46;;;;;;;3.90;1.17;;;9.50;99.90;;;;;;7333410;32;20212;-55
2023/03/10 02:24:25;;;;;;;3.28;1.25;;;9.50;99.90;;;;;;7328383;32;20147;-55
2023/03/10 02:28:27;;;;;;;3.50;1.10;;;9.50;99.90;;;;;;7335337;32;20652;-55
2023/03/10 02:32:33;;;;;;;2.65;0.80;;;9.50;99.90;;;;;;7336227;32;20125;-55
2023/03/10 02:36:35;;;;;;;3.20;0.70;;;9.50;99.90;;;;;;7332964;32;20184;-55
2023/03/10 02:40:43;;;;;;;3.65;1.00;;;9.50;99.90;;;;;;7329295;32;20265;-56
2023/03/10 02:44:46;;;;;;;5.72;1.10;;;9.50;99.90;;;;;;7330533;32;20153;-55
2023/03/10 02:48:48;;;;;;;2.65;0.90;;;9.40;99.90;;;;;;7328382;32;20166;-56
2023/03/10 02:52:56;;;;;;;4.45;1.10;;;9.40;99.90;;;;;;7328411;32;20107;-55
2023/03/10 02:56:58;;;;;;;2.87;0.90;;;9.40;99.90;;;;;;7352703;32;20126;-55
2023/03/10 03:01:00;;;;;;;4.80;0.90;;;9.30;99.90;;;;;;7330160;32;20225;-56
2023/03/10 03:05:01;;;;;;;3.62;1.00;;;9.20;99.90;;;;;;7334335;32;20250;-56
2023/03/10 03:09:04;;;;;;;2.33;0.70;;;9.30;99.90;;;;;;7331253;32;20177;-55
2023/03/10 03:13:05;;;;;;;4.03;1.00;;;9.30;99.90;;;;;;7333136;32;20104;-55
2023/03/10 03:17:07;;;;;;;6.45;1.73;;;9.30;99.90;;;;;;7332638;32;20316;-56
2023/03/10 03:21:15;;;;;;;3.35;0.85;;;9.30;99.90;;;;;;7334828;32;20902;-56
2023/03/10 03:25:19;;;;;;;3.03;0.93;;;9.20;99.90;;;;;;7331681;32;20235;-56
2023/03/10 03:29:20;;;;;;;6.57;1.40;;;9.10;99.90;;;;;;7340121;32;20115;-55
2023/03/10 03:33:22;;;;;;;3.08;1.10;;;9.20;99.90;;;;;;7340784;32;20133;-56
2023/03/10 03:37:24;;;;;;;4.62;1.42;;;9.10;99.90;;;;;;7332114;32;20216;-54
2023/03/10 03:41:26;;;;;;;3.80;1.00;;;9.10;99.90;;;;;;7332912;32;20202;-56
2023/03/10 03:45:30;;;;;;;4.95;1.27;;;9.10;99.90;;;;;;7331444;32;20191;-55
2023/03/10 03:49:34;;;;;;;3.90;0.90;;;9.20;99.90;;;;;;7331913;32;20482;-54
2023/03/10 03:53:35;;;;;;;4.03;0.90;;;9.10;99.90;;;;;;7332291;32;20132;-55
2023/03/10 03:57:38;;;;;;;4.40;1.60;;;9.10;99.90;;;;;;7337007;32;20133;-55
2023/03/10 04:01:40;;;;;;;6.50;1.10;;;9.10;99.90;;;;;;7336461;32;20139;-55
2023/03/10 04:05:43;;;;;;;3.67;0.85;;;9.10;99.90;;;;;;7339081;32;20178;-54
2023/03/10 04:09:44;;;;;;;3.12;0.90;;;9.10;99.90;;;;;;7340371;32;20137;-55
2023/03/10 04:13:46;;;;;;;7.28;1.80;;;9.10;99.90;;;;;;7340074;32;20111;-55
2023/03/10 04:17:48;;;;;;;3.92;1.20;;;8.90;99.90;;;;;;7335249;32;20122;-56
2023/03/10 04:21:50;;;;;;;3.37;1.37;;;8.90;99.90;;;;;;7337716;32;20187;-55
2023/03/10 04:25:52;;;;;;;6.35;2.00;;;8.80;99.90;;;;;;7342901;32;20257;-54
2023/03/10 04:29:54;;;;;;;6.20;1.80;;;8.80;99.90;;;;;;7338570;32;20555;-55
2023/03/10 04:33:56;;;;;;;3.78;1.62;;;8.90;99.90;;;;;;7333548;32;20637;-54
2023/03/10 04:37:57;;;;;;;5.05;1.70;;;8.90;99.90;;;;;;7334778;32;20152;-55
2023/03/10 04:41:59;;;;;;;5.43;2.00;;;8.80;99.90;;;;;;7330058;32;20181;-55
2023/03/10 04:46:01;;;;;;;2.90;1.58;;;8.80;99.90;;;;;;7340576;32;20146;-54
2023/03/10 04:50:05;;;;;;;3.42;1.42;;;8.80;99.90;;;;;;7333590;32;20130;-54
2023/03/10 04:54:06;;;;;;;3.05;1.25;;;8.90;99.90;;;;;;7331502;32;20203;-55
2023/03/10 04:58:08;;;;;;;7.07;1.45;;;8.90;99.90;;;;;;7342559;32;20302;-55
2023/03/10 05:02:10;;;;;;;10.10;1.65;;;8.80;99.90;;;;;;7337433;32;20104;-54
2023/03/10 05:06:14;;;;;;;4.97;1.80;;;8.80;99.90;;;;;;7335130;32;20124;-56
2023/03/10 05:10:16;;;;;;;6.53;1.65;;;8.70;99.90;;;;;;7333934;32;20218;-55
2023/03/10 05:14:18;;;;;;;7.55;1.40;;;8.80;99.90;;;;;;7335642;32;20115;-57
2023/03/10 05:18:19;;;;;;;6.30;1.65;;;8.80;99.90;;;;;;7340361;32;20174;-55
2023/03/10 05:22:21;;;;;;;7.70;1.55;;;8.80;99.90;;;;;;7337117;32;20111;-55
2023/03/10 05:26:23;;;;;;;7.45;1.55;;;8.80;99.90;;;;;;7335348;32;20108;-55
2023/03/10 05:30:25;;;;;;;6.87;1.70;;;8.70;99.90;;;;;;7331113;32;20251;-56
2023/03/10 05:34:27;;;;;;;7.82;1.80;;;8.70;99.90;;;;;;7335248;32;20961;-55
2023/03/10 05:38:28;;;;;;;7.60;2.08;;;8.70;99.90;;;;;;7337959;32;20525;-57
2023/03/10 05:42:30;;;;;;;10.60;3.03;;;8.70;99.90;;;;;;7329055;32;20105;-56
2023/03/10 05:46:32;;;;;;;10.35;2.33;;;8.70;99.90;;;;;;7338635;32;20238;-55
2023/03/10 05:50:33;;;;;;;6.32;1.92;;;8.70;99.90;;;;;;7341088;32;20118;-55
2023/03/10 05:54:36;;;;;;;10.85;2.37;;;8.70;99.90;;;;;;7329537;32;20115;-55
2023/03/10 05:58:38;;;;;;;11.15;1.92;;;8.80;99.90;;;;;;7332689;32;20131;-55
2023/03/10 06:02:40;;;;;;;13.00;1.67;;;8.90;99.90;;;;;;7333455;32;20139;-56
2023/03/10 06:06:42;;;;;;;7.18;1.48;;;8.80;99.90;;;;;;7331128;32;20133;-56
2023/03/10 06:10:44;;;;;;;8.02;1.58;;;8.80;99.90;;;;;;7337045;32;20115;-56
2023/03/10 06:14:46;;;;;;;7.45;1.60;;;8.90;99.90;;;;;;7334072;32;20130;-56
2023/03/10 06:18:52;;;;;;;9.68;1.98;;;8.90;99.90;;;;;;7334292;32;20100;-56
2023/03/10 06:22:53;;;;;;;9.25;1.65;;;8.90;99.90;;;;;;7332003;32;20225;-56
2023/03/10 06:26:55;;;;;;;11.57;1.98;;;9.00;99.90;;;;;;7334114;32;20143;-56
2023/03/10 06:30:58;;;;;;;10.48;1.40;;;8.90;99.90;;;;;;7336428;32;20577;-56
2023/03/10 06:35:00;;;;;;;11.48;1.73;;;9.00;99.90;;;;;;7337246;32;20676;-56
2023/03/10 06:39:02;;;;;;;7.68;1.50;;;9.00;99.90;;;;;;7332247;32;20110;-57
2023/03/10 06:43:04;;;;;;;8.32;1.42;;;9.10;99.90;;;;;;7335494;32;20130;-56
2023/03/10 06:47:06;;;;;;;8.27;1.55;;;9.10;99.90;;;;;;7334686;32;20233;-56
2023/03/10 06:51:12;;;;;;;10.45;2.30;;;9.00;99.90;;;;;;7337280;32;20249;-56
2023/03/10 06:55:15;;;;;;;11.20;1.83;;;9.00;99.90;;;;;;7338567;32;20137;-55
2023/03/10 06:59:17;;;;;;;6.40;1.37;;;9.10;99.90;;;;;;7333311;32;20250;-57
2023/03/10 07:03:19;;;;;;;7.28;1.40;;;9.10;99.90;;;;;;7331469;32;20126;-55
2023/03/10 07:07:21;;;;;;;12.32;1.70;;;9.20;99.90;;;;;;7332578;32;20284;-56
2023/03/10 07:11:24;;;;;;;8.00;1.65;;;9.30;99.90;;;;;;7338168;32;20247;-56
2023/03/10 07:15:26;;;;;;;25.15;13.00;;;9.30;99.90;;;;;;7335851;32;20190;-57
2023/03/10 07:19:27;;;;;;;11.88;2.53;;;9.40;99.90;;;;;;7338268;32;20612;-56
2023/03/10 07:23:29;;;;;;;11.82;1.98;;;9.40;99.90;;;;;;7326324;32;20554;-55
2023/03/10 07:27:31;;;;;;;5.90;1.60;;;9.30;99.90;;;;;;7335228;32;20236;-55
2023/03/10 07:31:33;;;;;;;6.75;1.40;;;9.30;99.90;;;;;;7342832;32;20200;-56
2023/03/10 07:35:35;;;;;;;10.18;1.85;;;9.30;99.90;;;;;;7338978;32;20410;-55
2023/03/10 07:39:37;;;;;;;8.48;2.03;;;9.30;99.90;;;;;;7341947;32;20647;-56
2023/03/10 07:43:39;;;;;;;8.02;1.92;;;9.30;99.90;;;;;;7330266;32;20135;-57
2023/03/10 07:47:41;;;;;;;9.38;1.70;;;9.30;99.90;;;;;;7336913;32;20125;-56
2023/03/10 07:51:43;;;;;;;8.70;1.70;;;9.40;99.90;;;;;;7337846;32;20280;-56
2023/03/10 07:55:44;;;;;;;7.25;1.55;;;9.50;99.90;;;;;;7333691;32;20266;-56
2023/03/10 07:59:46;;;;;;;9.45;1.87;;;9.70;99.90;;;;;;7335372;32;20103;-56
2023/03/10 08:03:48;;;;;;;11.48;1.83;;;9.80;99.90;;;;;;7335106;32;20107;-56
2023/03/10 08:07:50;;;;;;;9.07;2.00;;;9.90;99.90;;;;;;7338347;32;20125;-56
2023/03/10 08:11:52;;;;;;;7.78;1.90;;;10.00;99.90;;;;;;7336494;32;20470;-56
2023/03/10 08:15:53;;;;;;;6.57;1.65;;;10.00;99.90;;;;;;7330604;32;20225;-56
2023/03/10 08:19:57;;;;;;;7.82;1.83;;;10.10;99.90;;;;;;7337877;32;20157;-56
2023/03/10 08:23:59;;;;;;;10.73;2.35;;;10.00;99.90;;;;;;7333641;32;20195;-56
2023/03/10 08:28:00;;;;;;;7.97;1.90;;;10.10;99.90;;;;;;7340306;32;20494;-56
2023/03/10 08:32:02;;;;;;;9.32;1.58;;;10.00;99.90;;;;;;7334432;32;20099;-55
2023/03/10 08:36:07;;;;;;;11.95;2.12;;;9.90;99.90;;;;;;7332740;32;20214;-56
2023/03/10 08:40:12;;;;;;;8.90;1.98;;;10.00;99.90;;;;;;7331497;32;20226;-56
2023/03/10 08:44:16;;;;;;;8.77;2.25;;;10.10;99.90;;;;;;7336403;32;20130;-56
2023/03/10 08:48:18;;;;;;;11.20;1.77;;;10.10;99.90;;;;;;7337963;32;20202;-56
2023/03/10 08:52:20;;;;;;;15.38;2.10;;;10.00;99.90;;;;;;7334255;32;20458;-56
2023/03/10 08:56:23;;;;;;;8.60;2.15;;;10.10;99.90;;;;;;7334577;32;20139;-56
2023/03/10 09:00:25;;;;;;;9.00;2.45;;;10.10;99.90;;;;;;7328585;32;20508;-56
2023/03/10 09:04:26;;;;;;;8.95;2.12;;;10.30;99.90;;;;;;7332911;32;20153;-56
2023/03/10 09:08:28;;;;;;;7.68;1.50;;;10.50;99.90;;;;;;7328309;32;20217;-56
2023/03/10 09:12:30;;;;;;;7.40;1.92;;;10.80;99.90;;;;;;7326431;32;20111;-56
2023/03/10 09:16:39;;;;;;;11.82;2.03;;;11.00;99.90;;;;;;7332973;32;20300;-56
2023/03/10 09:20:41;;;;;;;7.75;2.00;;;11.30;99.90;;;;;;7341505;32;20572;-56
2023/03/10 09:24:43;;;;;;;9.25;2.15;;;11.60;99.90;;;;;;7337948;32;20173;-56
2023/03/10 09:28:48;;;;;;;7.55;1.65;;;11.80;99.90;;;;;;7339585;32;20107;-56
2023/03/10 09:32:50;;;;;;;11.77;1.92;;;11.90;99.90;;;;;;7332225;32;20254;-56
2023/03/10 09:36:52;;;;;;;10.27;1.45;;;12.60;99.90;;;;;;7335090;32;20115;-56
2023/03/10 09:41:35;;;;;;;9.48;1.80;;;13.30;99.90;;;;;;7328994;32;20505;-57
2023/03/10 09:45:59;;;;;;;10.00;1.67;;;13.20;99.90;;;;;;7335051;32;20129;-56
2023/03/10 09:50:19;;;;;;;9.20;1.55;;;12.80;99.90;;;;;;7333289;32;20116;-56
2023/03/10 09:54:50;;;;;;;8.75;1.65;;;12.30;99.90;;;;;;7336912;32;20315;-56
2023/03/10 09:58:58;;;;;;;11.55;1.50;;;12.30;99.90;;;;;;7338634;32;20218;-56
2023/03/10 10:03:21;;;;;;;7.95;1.90;;;12.20;99.90;;;;;;7336465;32;20568;-56
2023/03/10 10:07:27;;;;;;;9.32;1.70;;;12.10;99.90;;;;;;7338804;32;20138;-56
2023/03/10 10:11:29;;;;;;;11.80;1.50;;;12.30;99.90;;;;;;7339570;32;20202;-56
2023/03/10 10:15:31;;;;;;;8.50;1.70;;;12.30;99.90;;;;;;7332043;32;20135;-56
2023/03/10 10:19:38;;;;;;;9.88;1.50;;;12.20;99.90;;;;;;7333887;32;20163;-57
2023/03/10 10:23:45;;;;;;;9.05;1.42;;;12.10;99.90;;;;;;7331498;32;20747;-57
2023/03/10 10:27:50;;;;;;;;;;;12.20;99.90;;;;;;7329869;32;20711;-57
2023/03/10 10:32:08;;;;;;;9.35;1.83;;;12.60;99.90;;;;;;7331966;32;20537;-57
2023/03/10 10:36:17;;;;;;;9.25;1.83;;;13.70;99.90;;;;;;7337223;32;20246;-58
2023/03/10 10:40:24;;;;;;;5.10;1.12;;;14.20;99.90;;;;;;7337818;32;20683;-59
2023/03/10 10:44:26;;;;;;;10.73;1.30;;;14.20;99.90;;;;;;7341384;32;20123;-57
2023/03/10 10:48:46;;;;;;;8.88;1.60;;;13.70;99.90;;;;;;7338554;32;20112;-57
2023/03/10 10:52:51;;;;;;;7.82;1.45;;;13.00;99.90;;;;;;7338964;32;20167;-56
2023/03/10 10:56:55;;;;;;;6.55;1.30;;;12.60;99.90;;;;;;7335352;32;20103;-57
2023/03/10 11:01:04;;;;;;;6.30;1.58;;;12.20;99.90;;;;;;7333458;32;20115;-57
2023/03/10 11:05:20;;;;;;;6.35;1.05;;;12.00;99.90;;;;;;7330196;32;20115;-58
2023/03/10 11:09:22;;;;;;;6.12;1.30;;;12.00;99.90;;;;;;7333770;32;20874;-57
2023/03/10 11:13:35;;;;;;;6.40;1.10;;;12.00;99.90;;;;;;7340267;32;20111;-57
2023/03/10 11:17:50;;;;;;;7.70;1.42;;;12.10;99.90;;;;;;7339061;32;20330;-57
2023/03/10 11:21:59;;;;;;;5.87;1.27;;;12.20;99.90;;;;;;7335482;32;20156;-56
2023/03/10 11:26:24;;;;;;;3.70;0.82;;;12.20;99.90;;;;;;7332723;32;20530;-57
2023/03/10 11:30:39;;;;;;;6.22;0.90;;;12.10;99.90;;;;;;7333345;32;20204;-56
2023/03/10 11:34:47;;;;;;;3.60;0.60;;;11.70;99.90;;;;;;7329940;32;20347;-57
2023/03/10 11:38:54;;;;;;;2.28;0.65;;;11.30;99.90;;;;;;7328578;32;20230;-57
2023/03/10 11:43:10;;;;;;;2.60;0.62;;;11.10;99.90;;;;;;7332670;32;20122;-57
2023/03/10 11:47:37;;;;;;;2.63;0.53;;;11.00;99.90;;;;;;7336551;32;20165;-56
2023/03/10 11:51:58;;;;;;;4.90;1.30;;;10.90;99.90;;;;;;7332217;32;20186;-57
2023/03/10 11:56:01;;;;;;;3.92;0.85;;;10.70;99.90;;;;;;7325670;32;20120;-57
2023/03/10 12:00:14;;;;;;;6.45;1.00;;;10.60;99.90;;;;;;7328371;32;20138;-56
2023/03/10 12:04:24;;;;;;;5.62;1.00;;;10.40;99.90;;;;;;7337342;32;20272;-56
2023/03/10 12:08:31;;;;;;;6.55;1.10;;;10.30;99.90;;;;;;7342369;32;20140;-56
2023/03/10 12:12:36;;;;;;;5.53;0.98;;;10.10;99.90;;;;;;7338770;32;20727;-56
2023/03/10 12:16:40;;;;;;;5.90;1.83;;;10.00;99.90;;;;;;7332716;32;20135;-56
2023/03/10 12:20:42;;;;;;;6.03;1.90;;;10.10;99.90;;;;;;7329874;32;20114;-57
2023/03/10 12:24:45;;;;;;;5.68;1.58;;;10.30;99.90;;;;;;7337342;32;20129;-57
2023/03/10 12:28:47;;;;;;;6.82;1.00;;;10.40;99.90;;;;;;7334832;32;20241;-57
2023/03/10 12:32:49;;;;;;;4.47;1.40;;;10.40;99.90;;;;;;7341397;32;20169;-56
2023/03/10 12:37:06;;;;;;;4.70;1.25;;;10.30;99.90;;;;;;7335896;32;20134;-56
2023/03/10 12:41:08;;;;;;;6.35;1.33;;;10.20;99.90;;;;;;7340244;32;20154;-57
2023/03/10 12:45:30;;;;;;;3.30;1.10;;;10.10;99.90;;;;;;7333809;32;20339;-56
2023/03/10 12:49:37;;;;;;;5.47;1.33;;;10.00;99.90;;;;;;7339824;32;20233;-56
2023/03/10 12:53:59;;;;;;;4.35;1.08;;;10.00;99.90;;;;;;7338607;32;20223;-56
2023/03/10 12:58:12;;;;;;;3.67;0.80;;;9.90;99.90;;;;;;7336504;32;20406;-56
2023/03/10 13:02:24;;;;;;;2.08;0.40;;;9.60;99.90;;;;;;7336830;32;20147;-56
2023/03/10 13:06:31;;;;;;;2.08;0.60;;;9.50;99.90;;;;;;7337921;32;20507;-56
2023/03/10 13:10:34;;;;;;;4.15;0.88;;;9.40;99.90;;;;;;7337578;32;20493;-56
2023/03/10 13:14:39;;;;;;;2.75;1.00;;;9.40;99.90;;;;;;7338571;32;20574;-57
2023/03/10 13:18:49;;;;;;;2.83;0.70;;;9.70;99.90;;;;;;7339660;32;20362;-57
2023/03/10 13:22:53;;;;;;;3.70;0.82;;;9.70;99.90;;;;;;7349951;32;20107;-56
2023/03/10 13:27:13;;;;;;;1.95;0.45;;;9.70;99.90;;;;;;7327904;32;20307;-55
2023/03/10 13:31:19;;;;;;;2.60;0.60;;;9.60;99.90;;;;;;7336436;32;20149;-56
2023/03/10 13:35:28;;;;;;;1.90;0.60;;;9.50;99.90;;;;;;7334941;32;20141;-56
2023/03/10 13:39:30;;;;;;;2.33;0.30;;;9.40;99.90;;;;;;7333561;32;20216;-56
2023/03/10 13:43:50;;;;;;;2.47;0.50;;;9.40;99.90;;;;;;7336672;32;20102;-56
2023/03/10 13:47:52;;;;;;;3.70;0.60;;;9.40;99.90;;;;;;7340216;32;20136;-56
2023/03/10 13:51:59;;;;;;;1.73;0.70;;;9.50;99.90;;;;;;7335214;32;20731;-57
2023/03/10 13:56:08;;;;;;;;;;;9.60;99.90;;;;;;7330506;32;20110;-58
2023/03/10 14:00:14;;;;;;;1.40;0.70;;;9.60;99.90;;;;;;7340578;32;20175;-57
2023/03/10 14:04:36;;;;;;;3.27;0.93;;;9.60;99.90;;;;;;7343160;32;20465;-58
2023/03/10 14:08:38;;;;;;;1.60;1.10;;;9.60;99.90;;;;;;7331461;32;20153;-58
2023/03/10 14:12:51;;;;;;;1.33;0.62;;;9.70;99.90;;;;;;7336508;32;20206;-54
2023/03/10 14:16:59;;;;;;;1.33;0.60;;;9.70;99.90;;;;;;7334380;32;20474;-56
2023/03/10 14:21:22;;;;;;;1.23;0.60;;;9.40;99.90;;;;;;7333117;32;20171;-56
2023/03/10 14:25:25;;;;;;;1.58;0.85;;;9.00;99.90;;;;;;7330405;32;20138;-55
2023/03/10 14:29:27;;;;;;;4.37;0.70;;;8.80;99.90;;;;;;7332915;32;20164;-56
2023/03/10 14:33:28;;;;;;;1.58;0.90;;;8.60;99.90;;;;;;7339260;32;20199;-57
2023/03/10 14:37:30;;;;;;;1.83;0.88;;;8.50;99.90;;;;;;7328599;32;20475;-56
2023/03/10 14:41:32;;;;;;;2.25;0.70;;;8.30;99.90;;;;;;7337417;32;20165;-55
2023/03/10 14:45:36;;;;;;;1.58;0.93;;;7.90;99.90;;;;;;7334078;32;20111;-56
2023/03/10 14:49:40;;;;;;;3.33;1.00;;;7.80;99.90;;;;;;7332300;32;20270;-56
2023/03/10 14:53:42;;;;;;;2.55;0.93;;;7.70;99.90;;;;;;7336836;32;20116;-56
2023/03/10 14:57:46;;;;;;;1.92;1.45;;;7.60;99.90;;;;;;7329182;32;20205;-54
2023/03/10 15:01:48;;;;;;;2.78;1.10;;;7.60;99.90;;;;;;7335419;32;20094;-55
2023/03/10 15:05:50;;;;;;;3.72;1.20;;;7.60;99.90;;;;;;7333752;32;20379;-55
2023/03/10 15:09:52;;;;;;;3.35;1.50;;;7.60;99.90;;;;;;7332765;32;20504;-57
2023/03/10 15:14:18;;;;;;;2.90;1.42;;;7.40;99.90;;;;;;7338467;32;20125;-57
2023/03/10 15:18:22;;;;;;;2.58;1.20;;;7.20;99.90;;;;;;7328761;32;20261;-57
2023/03/10 15:22:24;;;;;;;2.55;1.73;;;7.10;99.90;;;;;;7334555;32;20184;-57
2023/03/10 15:26:25;;;;;;;2.90;1.90;;;6.90;99.90;;;;;;7331796;32;20210;-58
2023/03/10 15:30:33;;;;;;;3.10;2.15;;;6.90;99.90;;;;;;7339446;32;20198;-57
2023/03/10 15:34:35;;;;;;;2.50;1.83;;;6.90;99.90;;;;;;7325290;32;20598;-57
2023/03/10 15:38:38;;;;;;;5.55;2.05;;;6.80;99.90;;;;;;7332952;32;20134;-55
2023/03/10 15:42:41;;;;;;;2.53;1.65;;;6.90;99.90;;;;;;7330022;32;20190;-56
2023/03/10 15:46:44;;;;;;;2.85;1.55;;;6.80;99.90;;;;;;7328558;32;20100;-56
2023/03/10 15:50:46;;;;;;;5.57;1.80;;;6.80;99.90;;;;;;7334775;32;20107;-56
2023/03/10 15:54:48;;;;;;;4.12;1.83;;;6.80;99.90;;;;;;7337506;32;20161;-57
2023/03/10 15:58:51;;;;;;;3.10;1.75;;;6.90;99.90;;;;;;7335793;32;20218;-57
2023/03/10 16:02:53;;;;;;;2.62;1.50;;;6.70;99.90;;;;;;7333223;32;20103;-56
2023/03/10 16:06:55;;;;;;;2.70;1.23;;;6.70;99.90;;;;;;7330177;32;20140;-57
2023/03/10 16:10:56;;;;;;;2.53;1.70;;;6.70;99.90;;;;;;7335741;32;20122;-58
2023/03/10 16:14:58;;;;;;;1.30;1.00;;;6.80;99.90;;;;;;7336403;32;20135;-57
2023/03/10 16:19:01;;;;;;;7.00;3.72;;;6.50;99.90;;;;;;7339663;32;20506;-57
2023/03/10 16:23:03;;;;;;;7.10;2.95;;;5.80;99.90;;;;;;7332062;32;20131;-57
2023/03/10 16:27:05;;;;;;;8.23;2.35;;;5.10;99.90;;;;;;7340723;32;20126;-57
2023/03/10 16:31:07;;;;;;;7.18;2.85;;;4.70;99.90;;;;;;7343297;32;20107;-57
2023/03/10 16:35:09;;;;;;;12.65;5.28;;;4.40;99.90;;;;;;7333663;32;20214;-57
2023/03/10 16:39:11;;;;;;;13.38;6.25;;;4.10;99.90;;;;;;7335198;32;20245;-57
2023/03/10 16:43:13;;;;;;;12.27;5.07;;;3.80;99.90;;;;;;7339049;32;20131;-57
2023/03/10 16:47:15;;;;;;;6.43;2.37;;;3.50;99.90;;;;;;7342592;32;20115;-58
2023/03/10 16:51:34;;;;;;;2.12;0.88;;;2.90;99.90;;;;;;7345272;32;20141;-57
2023/03/10 16:55:35;;;;;;;1.85;1.05;;;2.60;99.90;;;;;;7335916;32;20147;-57
2023/03/10 16:59:39;;;;;;;2.22;1.40;;;2.30;99.90;;;;;;7342596;32;20111;-57
2023/03/10 17:03:41;;;;;;;3.47;2.28;;;2.10;99.90;;;;;;7336288;32;20133;-57
2023/03/10 17:07:43;;;;;;;2.53;1.83;;;1.80;99.90;;;;;;7333183;32;20126;-56
2023/03/10 17:11:56;;;;;;;3.47;2.17;;;1.80;99.90;;;;;;7324272;32;20116;-57
2023/03/10 17:15:59;;;;;;;4.87;3.00;;;1.60;99.90;;;;;;7330258;32;20832;-56
2023/03/10 17:20:00;;;;;;;4.07;2.58;;;1.50;99.90;;;;;;7347887;32;20161;-56
2023/03/10 17:24:03;;;;;;;5.93;4.20;;;1.40;99.90;;;;;;7336401;32;20719;-55
2023/03/10 17:28:05;;;;;;;5.10;3.55;;;1.30;99.90;;;;;;7338731;32;20123;-56
2023/03/10 17:32:06;;;;;;;3.87;2.55;;;1.10;99.90;;;;;;7342203;32;20174;-55
2023/03/10 17:36:12;;;;;;;4.65;2.95;;;1.00;99.90;;;;;;7339674;32;20170;-55
2023/03/10 17:40:16;;;;;;;3.75;2.20;;;1.00;99.90;;;;;;7336088;32;20134;-55
2023/03/10 17:44:17;;;;;;;4.00;2.55;;;1.00;99.90;;;;;;7340909;32;20822;-55
2023/03/10 17:48:19;;;;;;;4.57;2.37;;;0.90;99.90;;;;;;7325842;32;20796;-55
2023/03/10 17:52:21;;;;;;;7.35;3.15;;;0.90;99.90;;;;;;7337085;32;20660;-55
2023/03/10 17:56:23;;;;;;;5.40;3.12;;;0.80;99.90;;;;;;7329230;32;20224;-55
2023/03/10 18:00:25;;;;;;;6.00;3.55;;;0.70;99.90;;;;;;7333535;32;20265;-55
2023/03/10 18:04:29;;;;;;;7.18;4.18;;;0.80;99.90;;;;;;7332699;32;20119;-57
2023/03/10 18:08:30;;;;;;;7.18;3.95;;;0.80;99.90;;;;;;7334564;32;20273;-55
2023/03/10 18:12:32;;;;;;;7.37;4.85;;;0.80;99.90;;;;;;7335342;32;20108;-55
2023/03/10 18:16:37;;;;;;;8.93;5.12;;;0.80;99.90;;;;;;7335810;32;20563;-55
2023/03/10 18:20:39;;;;;;;9.50;5.18;;;0.80;99.90;;;;;;7331397;32;20520;-55
2023/03/10 18:24:41;;;;;;;7.93;5.22;;;0.90;99.90;;;;;;7340666;32;20292;-55
2023/03/10 18:28:43;;;;;;;8.07;4.03;;;0.90;99.90;;;;;;7336495;32;20252;-55
2023/03/10 18:32:45;;;;;;;4.37;2.62;;;0.90;99.90;;;;;;7330733;32;20149;-55
2023/03/10 18:36:47;;;;;;;4.95;2.97;;;0.90;99.90;;;;;;7334160;32;20523;-55
2023/03/10 18:40:59;;;;;;;6.97;3.47;;;1.00;99.90;;;;;;7329931;32;20104;-55
2023/03/10 18:45:00;;;;;;;8.05;4.28;;;1.00;99.90;;;;;;7333203;32;20825;-55
2023/03/10 18:49:02;;;;;;;15.93;6.90;;;1.00;99.90;;;;;;7331648;32;20107;-56
2023/03/10 18:53:04;;;;;;;16.55;8.30;;;1.00;99.90;;;;;;7333383;32;20104;-55
2023/03/10 18:57:05;;;;;;;20.67;9.10;;;0.90;99.90;;;;;;7342112;32;20157;-57
2023/03/10 19:01:12;;;;;;;14.63;8.02;;;0.90;99.90;;;;;;7339989;32;20662;-56
2023/03/10 19:05:15;;;;;;;9.55;5.50;;;0.90;99.90;;;;;;7332327;32;20114;-56
2023/03/10 19:09:19;;;;;;;8.02;3.70;;;0.90;99.90;;;;;;7328460;32;20133;-56
2023/03/10 19:13:20;;;;;;;9.20;4.68;;;1.00;99.90;;;;;;7328590;32;20244;-55
2023/03/10 19:17:25;;;;;;;11.00;5.72;;;0.90;99.90;;;;;;7332383;32;20215;-60
2023/03/10 19:21:27;;;;;;;8.82;4.47;;;1.00;99.90;;;;;;7332243;32;20104;-57
2023/03/10 19:25:28;;;;;;;11.55;5.75;;;1.00;99.90;;;;;;7338936;32;20213;-54
2023/03/10 19:29:30;;;;;;;9.32;3.87;;;1.00;99.90;;;;;;7338302;32;20763;-56
2023/03/10 19:33:32;;;;;;;11.70;5.32;;;1.00;99.90;;;;;;7339570;32;21255;-56
2023/03/10 19:37:35;;;;;;;14.27;5.78;;;1.00;99.90;;;;;;7339165;32;20149;-56
2023/03/10 19:41:36;;;;;;;11.02;4.40;;;1.00;99.90;;;;;;7339565;32;20107;-56
2023/03/10 19:45:38;;;;;;;8.15;4.30;;;1.10;99.90;;;;;;7345843;32;20141;-56
2023/03/10 19:49:40;;;;;;;10.02;4.65;;;1.10;99.90;;;;;;7342734;32;20116;-55
2023/03/10 19:53:41;;;;;;;9.60;4.75;;;1.20;99.90;;;;;;7342608;32;20206;-55
2023/03/10 19:57:43;;;;;;;7.68;3.60;;;1.40;99.90;;;;;;7337973;32;20135;-55
2023/03/10 20:01:48;;;;;;;6.05;3.33;;;1.30;99.90;;;;;;7338172;32;20115;-55
2023/03/10 20:05:50;;;;;;;4.45;3.08;;;1.30;99.90;;;;;;7331354;32;20131;-55
2023/03/10 20:09:52;;;;;;;4.55;2.90;;;1.30;99.90;;;;;;7333930;32;20221;-54
2023/03/10 20:13:53;;;;;;;4.07;2.55;;;1.40;99.90;;;;;;7333603;32;20176;-54
2023/03/10 20:17:56;;;;;;;4.57;3.08;;;1.40;99.90;;;;;;7339869;32;20286;-54
2023/03/10 20:21:58;;;;;;;3.72;2.87;;;1.40;99.90;;;;;;7343619;32;20314;-54
2023/03/10 20:26:06;;;;;;;3.25;2.60;;;1.30;99.90;;;;;;7333570;32;20251;-55
2023/03/10 20:30:14;;;;;;;2.80;1.92;;;1.30;99.90;;;;;;7333912;32;20110;-54
2023/03/10 20:34:20;;;;;;;3.25;2.30;;;1.30;99.90;;;;;;7338092;32;20848;-54
2023/03/10 20:38:22;;;;;;;2.80;2.35;;;1.30;99.90;;;;;;7332392;32;20266;-54
2023/03/10 20:42:23;;;;;;;4.15;2.58;;;1.30;99.90;;;;;;7338349;32;20487;-55
2023/03/10 20:46:25;;;;;;;3.37;2.53;;;1.40;99.90;;;;;;7342519;32;20150;-54
2023/03/10 20:50:28;;;;;;;3.75;2.30;;;1.40;99.90;;;;;;7332238;32;20166;-54
2023/03/10 20:54:29;;;;;;;2.97;2.67;;;1.30;99.90;;;;;;7336755;32;20112;-53
2023/03/10 20:58:31;;;;;;;5.30;3.47;;;1.40;99.90;;;;;;7340113;32;20139;-54
2023/03/10 21:02:33;;;;;;;5.10;4.20;;;1.40;99.90;;;;;;7335852;32;20119;-54
2023/03/10 21:06:36;;;;;;;5.57;4.53;;;1.30;99.90;;;;;;7340055;32;20115;-54
2023/03/10 21:10:38;;;;;;;6.00;5.00;;;1.40;99.90;;;;;;7327084;32;20228;-54
2023/03/10 21:14:40;;;;;;;7.03;5.18;;;1.50;99.90;;;;;;7340351;32;20265;-54
2023/03/10 21:18:42;;;;;;;6.72;6.03;;;1.50;99.90;;;;;;7336650;32;20269;-54
2023/03/10 21:22:44;;;;;;;7.70;6.22;;;1.40;99.90;;;;;;7334983;32;20530;-55